KTAD

Perry Stokes Airport

Trinidad, Colorado, USA
METAR KTAD 191054Z AUTO 25019G28KT 10SM CLR 20/13 A2996 RMK AO2 PK WND 24028/1045 SLP044 T02000128
Observed Flight Rules
Sep-19 @ 10:54 UTC (10 minutes ago) Visual Flight Rules
Wind Visibility Clouds
250° at 19 knots
 Gusting to 28 knots
10 miles
  • Clear skies
Temperatures Readings
Current 20°C / 68°F
Dewpoint 13°C / 55°F
Humidity 64%
Altimeter 29.96" Hg
Pressure 1004.4 hPa
Elevation 1756
METAR KTAD 191054Z AUTO 25019G28KT 10SM CLR 20/13 A2996 RMK AO2 PK WND 24028/1045 SLP044 T02000128
Observed Flight Rules
Sep-19 @ 10:54 UTC
(10 minutes ago)
VFR
Wind Visibility
250° at 19 knots
 Gusting to 28 knots
10 miles
Clouds
  • Clear skies
Temperature Dewpoint
20°C / 68°F 13°C / 55°F
Humidity Altimeter Pressure
64% 29.96" Hg 1004.4 hPa